Greater Rochester International Airport
KROC : now visible

Airfield :











YOU CAN JOIN US ON...

 
LOGIN :

Register | Disclaimer

   EN    FR    IT 

 









Legend :    VFR   Marginal VFR   IFR   Intensive IFR   Very Intensive IFR
Visi :
Ceiling :
>= 8 km
>= 3000ft
5 to 8 km
1000 to 3000 ft
1500m to 5 km
500 to 1000 ft
800 to 1500m
200 to 500 ft
< 800m
< 200 ft
Symbols :   Thunderstorms  Fog  Heavy snow  Heavy precipitations  Wind > 20 kt






- Airport Elevation : 559 ft
- IATA code : ROC


KROC - Greater Rochester International

CURRENT METAR :
  • 260554Z 04010KT 1 1/2SM BR OVC002 12/12 A2969 RMK AO2 SLP059 60000 T01170117 10122 20111 56021

EXPIRED METARs :
  • 260454Z 04008KT 1/2SM R04/2600V3000FT FG VV002 12/12 A2971 RMK AO2 SLP063 T01170117 401220094
  • 260443Z 05006KT 3/4SM R04/3000V4000FT BR VV002 12/12 A2972 RMK AO2 T01170117
  • 260411Z 06007KT 1SM R04/5000VP6000FT BR OVC001 12/12 A2973 RMK AO2 T01170117
  • 260402Z 06006KT 2SM BR OVC001 12/12 A2974 RMK AO2 T01170117
  • 260354Z 05005KT 4SM BR OVC002 12/12 A2974 RMK AO2 SLP075 T01170117

TAF KROC
Valid from the 26 at 06:00 until the 27 at 06:00 UTC


260540Z 2606/2706 04008KT 1/2SM FG OVC002
TEMPO 2606/2609 2SM BR
FM261000 01008KT 2SM RA BR OVC003
FM261800 36012KT 4SM -RA BR OVC005
FM270200 02013KT 6SM BR VCSH OVC007
KZOB FIR / North America



MET'MAP, your aeronautical weather chart ! - Copyright ORBIFLY December 2007 - Disclaimer

ORBIFLY MET'MAP TEAM :

Programming & Development : Alexandra Zaïnal
Concept & original design : Baudouin d'Aumeries
Assistance for programming : Marc-Olivier Méhu
Technical & hardware support : Manuel Goepfert

Contact : metmap@orbifly.com




SOURCES & CREDITS :

   NOAA       Earth
Advisory